Time;durP1;ratioP1;P1;durP2;ratioP2;P2;SDS_P1;SDS_P2;PMS_P1;PMS_P2;Temp;Humidity;BMP_temperature;BMP_pressure;BME280_temperature;BME280_humidity;BME280_pressure;Samples;Min_cycle;Max_cycle;Signal;HPM_P1;HPM_P2
2022/06/09 00:00:05;;;;;;;;;;;28.40;47.90;;;;;;665529;29;860;-92
2022/06/09 00:00:26;;;;;;;;;;;28.40;48.00;;;;;;667232;29;1201;-95
2022/06/09 00:00:49;;;;;;;;;;;28.30;47.90;;;;;;667662;29;1244;-94
2022/06/09 00:01:14;;;;;;;;;;;28.40;47.90;;;;;;667176;29;1415;-95
2022/06/09 00:01:37;;;;;;;;;;;28.40;47.60;;;;;;666536;29;1271;-94
2022/06/09 00:02:01;;;;;;;;;;;28.30;47.50;;;;;;667660;29;781;-95
2022/06/09 00:02:21;;;;;;;;;;;28.40;47.90;;;;;;666060;29;1197;-95
2022/06/09 00:02:45;;;;;;;;;;;28.40;48.90;;;;;;664207;29;1280;-95
2022/06/09 00:03:09;;;;;;;;;;;28.40;47.50;;;;;;666876;29;1266;-94
2022/06/09 00:03:35;;;;;;;;;;;28.30;47.90;;;;;;671832;29;1332;-95
2022/06/09 00:04:02;;;;;;;;;;;28.40;47.80;;;;;;669712;29;1197;-95
2022/06/09 00:04:27;;;;;;;;;;;28.40;47.50;;;;;;667451;29;899;-95
2022/06/09 00:04:48;;;;;;;;;;;28.40;47.70;;;;;;669945;29;1180;-95
2022/06/09 00:05:09;;;;;;;;;;;28.40;47.50;;;;;;669984;29;1299;-95
2022/06/09 00:05:30;;;;;;;;;;;28.40;47.50;;;;;;669887;29;1343;-92
2022/06/09 00:05:51;;;;;;;;;;;28.40;47.90;;;;;;669266;29;1371;-95
2022/06/09 00:06:12;;;;;;;;;;;28.40;47.60;;;;;;670014;29;1273;-96
2022/06/09 00:06:38;;;;;;;;;;;28.40;47.80;;;;;;669541;29;1283;-95
2022/06/09 00:07:01;;;;;;;;;;;28.40;47.50;;;;;;666204;29;1253;-95
2022/06/09 00:07:21;;;;;;;;;;;28.40;47.40;;;;;;664941;29;1177;-94
2022/06/09 00:07:43;;;;;;;;;;;28.30;48.80;;;;;;666433;29;1481;-94
2022/06/09 00:08:04;;;;;;;;;;;28.30;48.10;;;;;;665146;29;1229;-94
2022/06/09 00:08:25;;;;;;;;;;;28.30;47.50;;;;;;667452;29;1188;-96
2022/06/09 00:08:48;;;;;;;;;;;28.40;47.90;;;;;;668592;29;1244;-94
2022/06/09 00:09:09;;;;;;;;;;;28.40;47.80;;;;;;667656;29;1201;-96
2022/06/09 00:09:32;;;;;;;;;;;28.30;50.10;;;;;;664151;29;1383;-96
2022/06/09 00:09:57;;;;;;;;;;;28.40;47.90;;;;;;660963;29;1220;-96
2022/06/09 00:10:29;;;;;;;;;;;28.30;48.70;;;;;;659951;29;1218;-95
2022/06/09 00:10:54;;;;;;;;;;;28.40;48.40;;;;;;662328;29;876;-94
2022/06/09 00:11:17;;;;;;;;;;;28.50;48.00;;;;;;665919;29;1225;-94
2022/06/09 00:11:40;;;;;;;;;;;28.30;48.40;;;;;;665649;29;1222;-96
2022/06/09 00:12:01;;;;;;;;;;;28.40;48.30;;;;;;666028;29;1220;-93
2022/06/09 00:12:22;;;;;;;;;;;28.40;50.40;;;;;;665697;29;1251;-96
2022/06/09 00:12:43;;;;;;;;;;;28.40;49.30;;;;;;665199;29;1142;-94
2022/06/09 00:13:03;;;;;;;;;;;28.30;51.40;;;;;;663868;29;1319;-96
2022/06/09 00:13:27;;;;;;;;;;;28.40;52.00;;;;;;666430;29;1264;-95
2022/06/09 00:13:48;;;;;;;;;;;28.30;49.60;;;;;;665572;29;1907;-94
2022/06/09 00:14:09;;;;;;;;;;;28.40;51.30;;;;;;666040;29;1423;-96
2022/06/09 00:14:34;;;;;;;;;;;28.40;49.20;;;;;;665050;29;1273;-95
2022/06/09 00:14:57;;;;;;;;;;;28.40;48.10;;;;;;665535;29;1415;-96
2022/06/09 00:15:17;;;;;;;;;;;28.40;50.10;;;;;;663616;29;1548;-93
2022/06/09 00:15:38;;;;;;;;;;;28.30;49.30;;;;;;666367;29;1218;-94
2022/06/09 00:15:59;;;;;;;;;;;29.80;51.20;;;;;;668817;29;812;-96
2022/06/09 00:16:21;;;;;;;;;;;28.40;51.70;;;;;;671387;29;1480;-96
2022/06/09 00:16:43;;;;;;;;;;;28.50;48.30;;;;;;672226;29;844;-96
2022/06/09 00:17:03;;;;;;;;;;;28.40;48.80;;;;;;668216;29;1207;-96
2022/06/09 00:17:24;;;;;;;;;;;28.40;48.20;;;;;;668575;29;1274;-95
2022/06/09 00:17:45;;;;;;;;;;;28.30;49.20;;;;;;668284;29;1260;-92
2022/06/09 00:18:06;;;;;;;;;;;28.30;49.20;;;;;;667846;29;1151;-96
2022/06/09 00:18:30;;;;;;;;;;;28.30;50.90;;;;;;665540;29;1427;-96
2022/06/09 00:18:51;;;;;;;;;;;28.30;49.40;;;;;;665852;29;1396;-96
2022/06/09 00:19:13;;;;;;;;;;;28.50;52.90;;;;;;668697;29;1356;-96
2022/06/09 00:19:35;;;;;;;;;;;28.30;48.90;;;;;;669812;29;1249;-96
2022/06/09 00:19:56;;;;;;;;;;;25.80;48.60;;;;;;667936;29;984;-96
2022/06/09 00:20:17;;;;;;;;;;;28.40;50.40;;;;;;668525;29;1256;-96
2022/06/09 00:20:49;;;;;;;;;;;28.30;49.30;;;;;;671027;29;1242;-94
2022/06/09 00:21:10;;;;;;;;;;;28.40;51.30;;;;;;673064;29;1366;-94
2022/06/09 00:21:32;;;;;;;;;;;28.40;51.50;;;;;;671248;29;1318;-96
2022/06/09 00:21:53;;;;;;;;;;;28.30;50.20;;;;;;670654;29;860;-96
2022/06/09 00:22:13;;;;;;;;;;;28.30;50.40;;;;;;672068;29;1326;-96
2022/06/09 00:22:35;;;;;;;;;;;28.30;50.60;;;;;;670987;29;1213;-96
2022/06/09 00:22:56;;;;;;;;;;;28.40;48.20;;;;;;667552;29;1192;-96
2022/06/09 00:23:17;;;;;;;;;;;28.30;52.10;;;;;;665139;29;1379;-96
2022/06/09 00:23:38;;;;;;;;;;;28.30;48.80;;;;;;662659;29;1344;-96
2022/06/09 00:24:07;;;;;;;;;;;28.30;49.90;;;;;;664428;29;1447;-96
2022/06/09 00:24:28;;;;;;;;;;;28.40;48.30;;;;;;667638;29;822;-96
2022/06/09 00:24:49;;;;;;;;;;;29.50;50.50;;;;;;670114;29;959;-96
2022/06/09 00:25:11;;;;;;;;;;;28.20;51.80;;;;;;671279;29;904;-94
2022/06/09 00:25:33;;;;;;;;;;;28.40;49.00;;;;;;667841;29;1217;-93
2022/06/09 00:25:55;;;;;;;;;;;28.30;50.00;;;;;;666713;29;998;-95
2022/06/09 00:26:16;;;;;;;;;;;28.30;48.70;;;;;;669036;29;1433;-96
2022/06/09 00:27:27;;;;;;;;;;;28.30;48.30;;;;;;711317;23;2112;-92
2022/06/09 00:27:48;;;;;;;;;;;28.30;50.40;;;;;;669357;29;1323;-92
2022/06/09 00:28:12;;;;;;;;;;;28.00;52.00;;;;;;670194;29;1293;-92
2022/06/09 00:28:42;;;;;;;;;;;26.60;50.30;;;;;;672350;29;882;-96
2022/06/09 00:29:07;;;;;;;;;;;28.50;48.70;;;;;;671709;29;1437;-96
2022/06/09 00:29:31;;;;;;;;;;;28.30;48.40;;;;;;669949;29;1000;-96
2022/06/09 00:29:57;;;;;;;;;;;28.30;49.00;;;;;;670836;29;1407;-96
2022/06/09 00:31:06;;;;;;;;;;;28.50;48.60;;;;;;697830;23;1601;-94
2022/06/09 00:31:27;;;;;;;;;;;28.40;48.50;;;;;;671361;29;1190;-92
2022/06/09 00:31:47;;;;;;;;;;;27.60;52.90;;;;;;673188;29;1220;-96
2022/06/09 00:32:08;;;;;;;;;;;27.20;51.80;;;;;;673810;29;1162;-94
2022/06/09 00:32:30;;;;;;;;;;;26.10;52.10;;;;;;673831;29;860;-95
2022/06/09 00:32:50;;;;;;;;;;;28.40;50.00;;;;;;673738;29;1046;-96
2022/06/09 00:34:15;;;;;;;;;;;28.30;50.60;;;;;;672968;29;1888;-96
2022/06/09 00:35:49;;;;;;;;;;;28.20;48.50;;;;;;775009;23;1961;-95
2022/06/09 00:36:10;;;;;;;;;;;26.10;47.00;;;;;;674712;29;1641;-96
2022/06/09 00:36:31;;;;;;;;;;;28.20;53.10;;;;;;674900;29;1475;-96
2022/06/09 00:36:52;;;;;;;;;;;29.30;54.70;;;;;;675528;29;1038;-96
2022/06/09 00:37:12;;;;;;;;;;;28.20;52.00;;;;;;675399;29;925;-96
2022/06/09 00:37:42;;;;;;;;;;;28.10;51.30;;;;;;675151;29;1342;-96
2022/06/09 00:38:46;;;;;;;;;;;28.20;49.30;;;;;;676112;29;975;-96
2022/06/09 00:39:20;;;;;;;;;;;28.20;48.60;;;;;;676996;29;1052;-96
2022/06/09 00:39:54;;;;;;;;;;;28.30;49.70;;;;;;672368;29;922;-96
2022/06/09 00:40:15;;;;;;;;;;;28.30;48.60;;;;;;672170;29;902;-96
2022/06/09 00:40:36;;;;;;;;;;;28.30;51.70;;;;;;669424;29;979;-96
2022/06/09 00:42:52;;;;;;;;;;;28.20;48.50;;;;;;673336;29;1482;-96
2022/06/09 00:43:13;;;;;;;;;;;28.20;50.50;;;;;;673031;29;1294;-96
2022/06/09 00:43:34;;;;;;;;;;;28.20;51.10;;;;;;673214;29;1262;-96
2022/06/09 00:44:12;;;;;;;;;;;28.20;50.00;;;;;;673237;29;1432;-96
2022/06/09 00:44:32;;;;;;;;;;;28.20;49.50;;;;;;674529;29;1372;-96
2022/06/09 00:44:55;;;;;;;;;;;28.20;51.10;;;;;;675695;29;990;-96
2022/06/09 00:45:38;;;;;;;;;;;27.20;48.80;;;;;;675917;29;1624;-96
2022/06/09 00:46:17;;;;;;;;;;;28.50;48.50;;;;;;674172;29;1365;-96
2022/06/09 00:46:41;;;;;;;;;;;26.70;47.10;;;;;;672117;29;1192;-96
2022/06/09 00:47:06;;;;;;;;;;;26.30;46.80;;;;;;672629;29;1324;-95
2022/06/09 00:48:31;;;;;;;;;;;27.70;49.90;;;;;;670312;29;1184;-87
2022/06/09 00:49:20;;;;;;;;;;;28.20;48.10;;;;;;667047;29;951;-96
2022/06/09 00:50:07;;;;;;;;;;;28.20;48.10;;;;;;670989;29;1331;-96
2022/06/09 00:50:49;;;;;;;;;;;28.40;48.20;;;;;;668483;29;1517;-96
2022/06/09 00:51:32;;;;;;;;;;;28.30;49.30;;;;;;669162;29;1319;-95
2022/06/09 00:51:55;;;;;;;;;;;28.20;48.10;;;;;;669819;29;1414;-94
2022/06/09 00:52:17;;;;;;;;;;;28.30;48.30;;;;;;672134;29;1223;-90
2022/06/09 00:52:41;;;;;;;;;;;28.20;50.10;;;;;;674664;29;1409;-92
2022/06/09 00:53:04;;;;;;;;;;;28.20;49.30;;;;;;674369;29;1490;-90
2022/06/09 00:53:28;;;;;;;;;;;28.20;49.60;;;;;;674469;29;1421;-95
2022/06/09 00:53:52;;;;;;;;;;;28.50;49.70;;;;;;671078;29;1895;-96
2022/06/09 00:54:15;;;;;;;;;;;28.20;48.60;;;;;;672217;29;1335;-96
2022/06/09 00:54:38;;;;;;;;;;;28.20;47.90;;;;;;674307;29;1238;-95
2022/06/09 00:55:01;;;;;;;;;;;28.20;49.80;;;;;;675232;29;1227;-95
2022/06/09 00:55:24;;;;;;;;;;;28.20;49.80;;;;;;673875;29;1459;-90
2022/06/09 00:55:45;;;;;;;;;;;28.20;48.70;;;;;;674376;29;1235;-96
2022/06/09 00:56:08;;;;;;;;;;;28.40;48.90;;;;;;673207;29;1330;-95
2022/06/09 00:56:29;;;;;;;;;;;28.40;49.00;;;;;;672644;29;1412;-93
2022/06/09 00:56:55;;;;;;;;;;;28.20;51.50;;;;;;672737;29;1231;-94
2022/06/09 00:57:19;;;;;;;;;;;28.20;47.80;;;;;;671778;29;1176;-94
2022/06/09 00:57:50;;;;;;;;;;;27.30;48.30;;;;;;669869;29;1208;-92
2022/06/09 00:58:15;;;;;;;;;;;28.20;47.80;;;;;;672586;29;1530;-95
2022/06/09 00:58:39;;;;;;;;;;;28.30;47.80;;;;;;675149;29;1343;-95
2022/06/09 00:58:59;;;;;;;;;;;28.20;48.80;;;;;;672387;29;1479;-95
2022/06/09 00:59:22;;;;;;;;;;;28.20;51.00;;;;;;669524;29;1295;-96
2022/06/09 00:59:46;;;;;;;;;;;28.40;49.60;;;;;;669420;29;1307;-92
2022/06/09 01:00:42;;;;;;;;;;;28.30;49.10;;;;;;667151;29;1353;-92
2022/06/09 01:01:42;;;;;;;;;;;28.40;47.90;;;;;;673801;29;1172;-88
2022/06/09 01:02:27;;;;;;;;;;;28.30;47.80;;;;;;659834;29;1214;-89
2022/06/09 01:02:50;;;;;;;;;;;28.40;49.80;;;;;;659730;29;1288;-90
2022/06/09 01:03:12;;;;;;;;;;;28.40;48.60;;;;;;657697;30;1585;-92
2022/06/09 01:03:42;;;;;;;;;;;27.80;49.20;;;;;;657811;29;1106;-90
2022/06/09 01:04:08;;;;;;;;;;;28.60;48.20;;;;;;657803;29;1198;-90
2022/06/09 01:04:32;;;;;;;;;;;28.30;48.20;;;;;;657527;30;1187;-96
2022/06/09 01:04:53;;;;;;;;;;;28.30;50.20;;;;;;657835;30;1271;-96
2022/06/09 01:05:15;;;;;;;;;;;28.30;50.80;;;;;;656853;30;1530;-93
2022/06/09 01:05:37;;;;;;;;;;;28.30;49.10;;;;;;656352;30;1275;-94
2022/06/09 01:06:07;;;;;;;;;;;28.60;51.50;;;;;;655504;30;1301;-93
2022/06/09 01:06:30;;;;;;;;;;;28.20;47.80;;;;;;652895;30;1456;-94
2022/06/09 01:06:52;;;;;;;;;;;28.40;49.60;;;;;;652526;30;1526;-92
2022/06/09 01:07:14;;;;;;;;;;;28.30;50.60;;;;;;654923;30;1282;-96
2022/06/09 01:07:37;;;;;;;;;;;28.30;48.60;;;;;;653635;29;1507;-96
2022/06/09 01:08:00;;;;;;;;;;;28.40;48.60;;;;;;654207;30;1227;-90
2022/06/09 01:08:54;;;;;;;;;;;28.20;49.60;;;;;;656214;29;1259;-95
2022/06/09 01:09:55;;;;;;;;;;;28.20;47.80;;;;;;663835;29;1514;-89
2022/06/09 01:10:54;;;;;;;;;;;28.50;48.40;;;;;;660351;29;906;-89
2022/06/09 01:12:06;;;;;;;;;;;28.50;48.30;;;;;;654170;30;1317;-94
2022/06/09 01:12:40;;;;;;;;;;;28.40;48.50;;;;;;651579;30;1117;-94
2022/06/09 01:13:01;;;;;;;;;;;28.30;48.30;;;;;;652224;30;1410;-95
2022/06/09 01:13:21;;;;;;;;;;;28.20;53.60;;;;;;652381;30;1201;-96
2022/06/09 01:13:44;;;;;;;;;;;28.20;50.80;;;;;;653952;30;1315;-93
2022/06/09 01:14:14;;;;;;;;;;;28.50;48.60;;;;;;654629;30;1963;-92
2022/06/09 01:14:36;;;;;;;;;;;28.20;48.20;;;;;;655847;30;1403;-89
2022/06/09 01:15:21;;;;;;;;;;;28.80;49.00;;;;;;652784;30;1172;-93
2022/06/09 01:15:58;;;;;;;;;;;28.20;48.60;;;;;;655765;30;1214;-96
2022/06/09 01:16:43;;;;;;;;;;;28.30;48.50;;;;;;652246;30;1278;-95
2022/06/09 01:17:11;;;;;;;;;;;27.60;48.00;;;;;;650542;30;1481;-95
2022/06/09 01:17:38;;;;;;;;;;;28.20;48.50;;;;;;649229;30;1480;-95
2022/06/09 01:18:24;;;;;;;;;;;30.30;50.00;;;;;;646412;30;1270;-95
2022/06/09 01:18:52;;;;;;;;;;;28.20;48.60;;;;;;646141;30;1303;-96
2022/06/09 01:19:28;;;;;;;;;;;28.20;49.40;;;;;;648709;30;1497;-96
2022/06/09 01:19:57;;;;;;;;;;;28.20;49.70;;;;;;648174;30;1390;-94
2022/06/09 01:20:30;;;;;;;;;;;28.20;48.60;;;;;;646076;30;1412;-94
2022/06/09 01:20:58;;;;;;;;;;;28.20;48.70;;;;;;648072;30;1447;-95
2022/06/09 01:21:37;;;;;;;;;;;28.20;48.60;;;;;;645576;30;1492;-95
2022/06/09 01:22:04;;;;;;;;;;;28.20;48.70;;;;;;647919;30;1342;-95
2022/06/09 01:22:27;;;;;;;;;;;28.20;48.70;;;;;;650377;30;1385;-96
2022/06/09 01:23:06;;;;;;;;;;;28.20;48.70;;;;;;650280;30;1345;-95
2022/06/09 01:23:26;;;;;;;;;;;27.20;47.90;;;;;;648011;30;1366;-93
2022/06/09 01:24:07;;;;;;;;;;;28.20;49.90;;;;;;645445;30;1248;-95
2022/06/09 01:24:33;;;;;;;;;;;28.20;48.70;;;;;;643246;30;2066;-95
2022/06/09 01:25:12;;;;;;;;;;;28.20;48.80;;;;;;646436;30;1560;-94
2022/06/09 01:25:37;;;;;;;;;;;28.10;48.70;;;;;;648152;30;1286;-93
2022/06/09 01:25:57;;;;;;;;;;;28.10;48.60;;;;;;650845;30;1244;-93
2022/06/09 01:26:18;;;;;;;;;;;28.20;49.20;;;;;;648194;30;1211;-96
2022/06/09 01:26:41;;;;;;;;;;;28.20;52.70;;;;;;647653;30;1337;-88
2022/06/09 01:27:17;;;;;;;;;;;28.10;48.60;;;;;;645105;30;1347;-90
2022/06/09 01:27:56;;;;;;;;;;;26.80;47.70;;;;;;650139;30;1289;-88
2022/06/09 01:28:35;;;;;;;;;;;28.20;48.80;;;;;;649725;30;1306;-90
2022/06/09 01:29:00;;;;;;;;;;;28.10;48.60;;;;;;649856;30;1309;-92
2022/06/09 01:29:39;;;;;;;;;;;28.20;53.20;;;;;;649313;30;1364;-94
2022/06/09 01:30:06;;;;;;;;;;;28.20;48.90;;;;;;649961;30;1337;-89
2022/06/09 01:30:46;;;;;;;;;;;26.50;47.60;;;;;;649522;30;1298;-89
2022/06/09 01:31:10;;;;;;;;;;;28.10;48.80;;;;;;645210;30;1336;-90
2022/06/09 01:31:37;;;;;;;;;;;26.60;47.70;;;;;;645103;30;1232;-93
2022/06/09 01:32:08;;;;;;;;;;;28.10;48.90;;;;;;645317;30;1287;-89
2022/06/09 01:32:32;;;;;;;;;;;28.20;48.90;;;;;;647168;30;1397;-90
2022/06/09 01:32:58;;;;;;;;;;;28.20;52.00;;;;;;648238;30;1385;-90
2022/06/09 01:33:19;;;;;;;;;;;28.10;50.50;;;;;;649329;30;1415;-89
2022/06/09 01:33:39;;;;;;;;;;;28.10;55.20;;;;;;649873;30;1305;-90
2022/06/09 01:34:08;;;;;;;;;;;28.10;52.00;;;;;;649847;30;1975;-90
2022/06/09 01:34:58;;;;;;;;;;;29.30;53.70;;;;;;650481;30;1499;-90
2022/06/09 01:35:35;;;;;;;;;;;28.00;49.00;;;;;;655019;30;1258;-95
2022/06/09 01:36:09;;;;;;;;;;;26.00;47.40;;;;;;654883;30;1416;-95
2022/06/09 01:36:40;;;;;;;;;;;28.10;49.00;;;;;;654317;30;1545;-92
2022/06/09 01:37:11;;;;;;;;;;;28.10;49.00;;;;;;654732;30;1530;-94
2022/06/09 01:37:35;;;;;;;;;;;26.90;48.00;;;;;;654329;30;1412;-94
2022/06/09 01:37:56;;;;;;;;;;;28.20;51.90;;;;;;654533;30;1465;-94
2022/06/09 01:38:17;;;;;;;;;;;28.00;51.10;;;;;;652284;30;1376;-94
2022/06/09 01:38:46;;;;;;;;;;;28.10;51.60;;;;;;653924;30;1266;-94
2022/06/09 01:39:07;;;;;;;;;;;27.60;48.70;;;;;;657093;30;1550;-93
2022/06/09 01:39:29;;;;;;;;;;;28.10;52.20;;;;;;654851;30;1427;-94
2022/06/09 01:39:54;;;;;;;;;;;28.20;49.70;;;;;;657383;30;1345;-94
2022/06/09 01:40:17;;;;;;;;;;;28.10;49.00;;;;;;655057;30;1349;-94
2022/06/09 01:40:37;;;;;;;;;;;28.10;49.80;;;;;;659604;29;1275;-95
2022/06/09 01:41:01;;;;;;;;;;;29.00;53.40;;;;;;659425;29;1303;-91
2022/06/09 01:41:22;;;;;;;;;;;28.30;49.10;;;;;;658782;29;1344;-94
2022/06/09 01:41:49;;;;;;;;;;;28.10;49.50;;;;;;658282;29;1465;-92
2022/06/09 01:42:28;;;;;;;;;;;28.00;49.00;;;;;;656665;30;1370;-95
2022/06/09 01:42:56;;;;;;;;;;;28.10;49.00;;;;;;656162;29;1281;-95
2022/06/09 01:43:17;;;;;;;;;;;26.10;50.00;;;;;;658953;29;1367;-95
2022/06/09 01:43:38;;;;;;;;;;;28.20;51.30;;;;;;657112;29;1363;-90
2022/06/09 01:44:04;;;;;;;;;;;28.10;51.60;;;;;;655084;30;1250;-91
2022/06/09 01:44:25;;;;;;;;;;;28.00;49.50;;;;;;657564;30;1431;-93
2022/06/09 01:44:46;;;;;;;;;;;28.00;51.20;;;;;;659611;30;1334;-91
2022/06/09 01:45:21;;;;;;;;;;;28.10;49.70;;;;;;660187;30;1218;-91
2022/06/09 01:45:49;;;;;;;;;;;28.10;49.80;;;;;;662590;29;1222;-92
2022/06/09 01:46:25;;;;;;;;;;;28.10;49.70;;;;;;660116;29;1204;-93
2022/06/09 01:46:47;;;;;;;;;;;28.10;49.60;;;;;;662529;29;1228;-91
2022/06/09 01:47:07;;;;;;;;;;;28.10;50.00;;;;;;662547;29;1092;-92
2022/06/09 01:47:32;;;;;;;;;;;28.10;51.60;;;;;;659686;30;1304;-93
2022/06/09 01:47:59;;;;;;;;;;;28.10;49.40;;;;;;658071;30;1293;-92
2022/06/09 01:48:21;;;;;;;;;;;28.10;49.20;;;;;;660106;30;1150;-93
2022/06/09 01:48:41;;;;;;;;;;;28.10;49.60;;;;;;661873;29;1245;-93
2022/06/09 01:49:07;;;;;;;;;;;28.10;50.30;;;;;;664356;29;1388;-93
2022/06/09 01:49:29;;;;;;;;;;;28.10;49.50;;;;;;662729;29;1318;-93
2022/06/09 01:49:51;;;;;;;;;;;28.10;49.60;;;;;;665044;29;1246;-93
2022/06/09 01:50:17;;;;;;;;;;;28.10;49.20;;;;;;666611;29;1299;-93
2022/06/09 01:50:44;;;;;;;;;;;28.10;49.00;;;;;;665337;29;1204;-93
2022/06/09 01:51:13;;;;;;;;;;;28.10;48.80;;;;;;665158;29;1361;-93
2022/06/09 01:51:36;;;;;;;;;;;28.10;48.70;;;;;;668253;29;1255;-92
2022/06/09 01:51:57;;;;;;;;;;;28.10;49.00;;;;;;670868;29;1350;-92
2022/06/09 01:52:18;;;;;;;;;;;28.10;49.80;;;;;;672904;29;1295;-93
2022/06/09 01:52:41;;;;;;;;;;;28.20;48.80;;;;;;672886;29;1310;-94
2022/06/09 01:53:04;;;;;;;;;;;28.10;48.90;;;;;;672852;29;1318;-93
2022/06/09 01:53:35;;;;;;;;;;;28.20;48.80;;;;;;671673;29;1322;-93
2022/06/09 01:53:59;;;;;;;;;;;28.20;48.80;;;;;;667895;29;1968;-92
2022/06/09 01:54:21;;;;;;;;;;;28.10;49.90;;;;;;667688;29;1369;-93
2022/06/09 01:54:42;;;;;;;;;;;28.10;49.00;;;;;;667893;29;1200;-93
2022/06/09 01:55:04;;;;;;;;;;;28.20;49.20;;;;;;670150;29;1363;-92
2022/06/09 01:55:25;;;;;;;;;;;28.10;48.90;;;;;;672664;29;1117;-90
2022/06/09 01:55:51;;;;;;;;;;;28.10;49.80;;;;;;669163;29;1280;-91
2022/06/09 01:56:23;;;;;;;;;;;28.30;49.50;;;;;;670129;29;1449;-90
2022/06/09 01:56:53;;;;;;;;;;;28.10;48.70;;;;;;667538;29;1235;-90
2022/06/09 01:57:17;;;;;;;;;;;28.20;48.70;;;;;;667581;29;1363;-90
2022/06/09 01:57:38;;;;;;;;;;;28.20;48.80;;;;;;669090;29;1335;-91
2022/06/09 01:58:00;;;;;;;;;;;28.20;49.20;;;;;;670392;29;1214;-91
2022/06/09 01:58:25;;;;;;;;;;;28.10;49.20;;;;;;670214;29;804;-91
2022/06/09 01:59:06;;;;;;;;;;;28.10;49.20;;;;;;670295;29;1346;-90
2022/06/09 01:59:34;;;;;;;;;;;28.10;49.40;;;;;;668205;29;1221;-91
2022/06/09 02:00:25;;;;;;;;;;;28.20;48.60;;;;;;667874;29;1295;-91
2022/06/09 02:00:46;;;;;;;;;;;28.20;48.70;;;;;;662617;29;1203;-92
2022/06/09 02:01:07;;;;;;;;;;;28.10;48.70;;;;;;660004;30;1212;-92
2022/06/09 02:01:34;;;;;;;;;;;28.20;48.80;;;;;;662830;29;979;-92
2022/06/09 02:02:06;;;;;;;;;;;28.20;48.80;;;;;;660292;29;1472;-92
2022/06/09 02:02:31;;;;;;;;;;;28.20;49.70;;;;;;660267;29;1217;-92
2022/06/09 02:02:59;;;;;;;;;;;28.20;49.80;;;;;;660701;29;1303;-93
2022/06/09 02:03:25;;;;;;;;;;;28.10;48.50;;;;;;659985;29;1498;-92
2022/06/09 02:03:49;;;;;;;;;;;28.20;48.50;;;;;;660039;29;1213;-91
2022/06/09 02:04:13;;;;;;;;;;;28.30;48.90;;;;;;657861;29;1367;-91
2022/06/09 02:04:37;;;;;;;;;;;28.20;49.50;;;;;;657756;30;1237;-91
2022/06/09 02:05:01;;;;;;;;;;;28.20;48.80;;;;;;657666;30;1115;-90
2022/06/09 02:05:23;;;;;;;;;;;28.20;48.80;;;;;;660074;30;1200;-91
2022/06/09 02:05:45;;;;;;;;;;;28.20;48.80;;;;;;660060;29;1371;-91
2022/06/09 02:06:06;;;;;;;;;;;28.20;48.60;;;;;;660026;30;1208;-92
2022/06/09 02:06:27;;;;;;;;;;;28.20;48.70;;;;;;658061;29;1425;-92
2022/06/09 02:06:48;;;;;;;;;;;28.20;48.70;;;;;;658747;30;1194;-92
2022/06/09 02:07:09;;;;;;;;;;;28.20;48.60;;;;;;660096;30;1202;-92
2022/06/09 02:07:31;;;;;;;;;;;28.20;48.90;;;;;;660119;29;1401;-91
2022/06/09 02:07:53;;;;;;;;;;;28.20;48.60;;;;;;660071;29;1331;-89
2022/06/09 02:08:16;;;;;;;;;;;28.20;48.60;;;;;;660789;29;801;-90
2022/06/09 02:08:38;;;;;;;;;;;28.20;48.80;;;;;;659955;30;1206;-91
2022/06/09 02:08:58;;;;;;;;;;;28.30;48.80;;;;;;661226;29;1428;-89
2022/06/09 02:09:22;;;;;;;;;;;28.20;49.80;;;;;;662424;29;1342;-89
2022/06/09 02:09:43;;;;;;;;;;;28.20;48.60;;;;;;662497;29;1295;-91
2022/06/09 02:10:29;;;;;;;;;;;28.20;50.40;;;;;;662511;29;1316;-89
2022/06/09 02:10:54;;;;;;;;;;;28.20;48.40;;;;;;662453;29;1264;-90
2022/06/09 02:11:15;;;;;;;;;;;28.20;48.40;;;;;;662444;29;1205;-90
2022/06/09 02:11:45;;;;;;;;;;;28.20;49.00;;;;;;663813;29;801;-90
2022/06/09 02:12:09;;;;;;;;;;;28.10;48.50;;;;;;667620;29;891;-90
2022/06/09 02:12:30;;;;;;;;;;;28.20;48.30;;;;;;664973;29;1234;-91
2022/06/09 02:12:51;;;;;;;;;;;28.20;48.40;;;;;;662438;29;1286;-90
2022/06/09 02:13:17;;;;;;;;;;;28.20;48.70;;;;;;662483;29;1441;-90
2022/06/09 02:13:39;;;;;;;;;;;28.20;48.50;;;;;;659904;29;1199;-90
2022/06/09 02:14:00;;;;;;;;;;;28.20;48.70;;;;;;660050;29;1970;-90
2022/06/09 02:14:22;;;;;;;;;;;28.20;48.60;;;;;;660117;29;1182;-91
2022/06/09 02:14:44;;;;;;;;;;;28.20;48.80;;;;;;658909;30;1253;-91
2022/06/09 02:15:08;;;;;;;;;;;28.20;48.60;;;;;;660175;30;809;-91
2022/06/09 02:15:55;;;;;;;;;;;28.20;48.70;;;;;;661408;29;845;-90
2022/06/09 02:16:17;;;;;;;;;;;28.10;48.60;;;;;;660627;29;1217;-90
2022/06/09 02:16:37;;;;;;;;;;;28.10;48.60;;;;;;661593;29;1214;-90
2022/06/09 02:16:58;;;;;;;;;;;28.10;49.70;;;;;;662499;29;1343;-89
2022/06/09 02:17:19;;;;;;;;;;;28.20;49.20;;;;;;659975;29;1318;-90
2022/06/09 02:17:44;;;;;;;;;;;28.10;48.70;;;;;;660057;29;1298;-90
2022/06/09 02:18:10;;;;;;;;;;;28.10;48.60;;;;;;661043;29;1103;-91
2022/06/09 02:18:32;;;;;;;;;;;28.20;48.70;;;;;;662908;29;880;-90
2022/06/09 02:18:54;;;;;;;;;;;28.10;48.90;;;;;;662549;29;1259;-90
2022/06/09 02:19:15;;;;;;;;;;;28.10;48.60;;;;;;664442;29;1337;-91
2022/06/09 02:19:37;;;;;;;;;;;28.10;49.50;;;;;;662500;29;1209;-89
2022/06/09 02:19:58;;;;;;;;;;;28.10;48.80;;;;;;662765;29;1417;-90
2022/06/09 02:20:20;;;;;;;;;;;28.10;48.90;;;;;;662535;29;1221;-92
2022/06/09 02:20:42;;;;;;;;;;;28.10;49.00;;;;;;662757;29;1197;-91
2022/06/09 02:21:06;;;;;;;;;;;28.10;48.70;;;;;;664324;29;1253;-91
2022/06/09 02:21:30;;;;;;;;;;;28.10;48.80;;;;;;662679;29;932;-91
2022/06/09 02:21:51;;;;;;;;;;;28.10;48.80;;;;;;663609;29;1366;-92
2022/06/09 02:22:12;;;;;;;;;;;28.10;48.80;;;;;;663879;29;1316;-91
2022/06/09 02:22:32;;;;;;;;;;;28.10;49.60;;;;;;663810;29;1314;-92
2022/06/09 02:22:54;;;;;;;;;;;28.10;49.40;;;;;;662585;29;1308;-91
2022/06/09 02:23:15;;;;;;;;;;;28.10;49.30;;;;;;660069;30;1475;-92
2022/06/09 02:23:36;;;;;;;;;;;28.10;50.10;;;;;;660042;30;852;-92
2022/06/09 02:23:57;;;;;;;;;;;28.10;50.00;;;;;;660232;30;905;-92
2022/06/09 02:24:17;;;;;;;;;;;28.10;53.00;;;;;;660627;29;821;-92
2022/06/09 02:24:38;;;;;;;;;;;28.20;52.30;;;;;;660453;29;1636;-92
2022/06/09 02:24:59;;;;;;;;;;;28.10;49.40;;;;;;663022;29;1252;-92
2022/06/09 02:25:20;;;;;;;;;;;28.10;49.20;;;;;;665107;29;1337;-92
2022/06/09 02:25:40;;;;;;;;;;;28.10;50.20;;;;;;665062;29;1388;-92
2022/06/09 02:26:01;;;;;;;;;;;28.10;48.90;;;;;;665069;29;1345;-92
2022/06/09 02:26:22;;;;;;;;;;;28.10;49.20;;;;;;665145;29;1170;-93
2022/06/09 02:26:43;;;;;;;;;;;28.10;48.90;;;;;;665003;29;1209;-92
2022/06/09 02:27:04;;;;;;;;;;;28.10;49.80;;;;;;662394;29;1490;-92
2022/06/09 02:27:24;;;;;;;;;;;28.10;49.30;;;;;;662597;29;1209;-92
2022/06/09 02:27:45;;;;;;;;;;;28.10;49.10;;;;;;662530;29;1127;-92
2022/06/09 02:28:06;;;;;;;;;;;28.10;50.00;;;;;;662615;29;1324;-91
2022/06/09 02:28:27;;;;;;;;;;;29.00;49.80;;;;;;663120;29;1210;-91
2022/06/09 02:28:47;;;;;;;;;;;28.10;51.00;;;;;;665080;29;730;-92
2022/06/09 02:29:08;;;;;;;;;;;28.10;49.00;;;;;;662594;29;1311;-92
2022/06/09 02:29:29;;;;;;;;;;;28.10;49.10;;;;;;660217;29;1348;-92
2022/06/09 02:29:50;;;;;;;;;;;28.10;49.70;;;;;;660159;29;1272;-92
2022/06/09 02:30:11;;;;;;;;;;;28.10;49.10;;;;;;660368;29;1213;-92
2022/06/09 02:30:32;;;;;;;;;;;28.10;49.40;;;;;;660031;29;1245;-91
2022/06/09 02:30:52;;;;;;;;;;;28.10;49.00;;;;;;660484;29;1372;-92
2022/06/09 02:31:13;;;;;;;;;;;28.10;50.40;;;;;;662794;29;1396;-89
2022/06/09 02:31:34;;;;;;;;;;;28.10;49.10;;;;;;662335;29;1277;-92
2022/06/09 02:31:55;;;;;;;;;;;28.00;49.60;;;;;;660482;29;1224;-91
2022/06/09 02:32:15;;;;;;;;;;;28.10;49.30;;;;;;660106;29;1338;-91
2022/06/09 02:32:36;;;;;;;;;;;28.10;50.00;;;;;;660185;30;715;-92
2022/06/09 02:32:57;;;;;;;;;;;28.10;49.20;;;;;;660122;29;1353;-93
2022/06/09 02:33:18;;;;;;;;;;;28.10;48.90;;;;;;660251;29;1109;-93
2022/06/09 02:33:39;;;;;;;;;;;28.10;49.60;;;;;;662850;29;1456;-93
2022/06/09 02:33:59;;;;;;;;;;;28.00;49.10;;;;;;665069;29;1966;-92
2022/06/09 02:34:20;;;;;;;;;;;28.10;49.30;;;;;;665036;29;1127;-92
2022/06/09 02:34:41;;;;;;;;;;;28.00;49.80;;;;;;664999;29;1239;-92
2022/06/09 02:35:02;;;;;;;;;;;25.70;49.10;;;;;;665089;29;1237;-91
2022/06/09 02:35:23;;;;;;;;;;;28.00;49.20;;;;;;665041;29;1412;-92
2022/06/09 02:35:43;;;;;;;;;;;28.00;49.70;;;;;;664833;29;1364;-92
2022/06/09 02:36:04;;;;;;;;;;;28.00;49.20;;;;;;662533;29;1365;-91
2022/06/09 02:36:25;;;;;;;;;;;28.00;48.80;;;;;;662602;29;1340;-91
2022/06/09 02:36:46;;;;;;;;;;;28.00;50.10;;;;;;662271;29;1237;-92
2022/06/09 02:37:06;;;;;;;;;;;28.00;49.50;;;;;;662757;29;1353;-93
2022/06/09 02:37:27;;;;;;;;;;;28.00;49.10;;;;;;665232;29;1408;-91
2022/06/09 02:37:48;;;;;;;;;;;28.00;50.20;;;;;;664847;29;1499;-92
2022/06/09 02:38:08;;;;;;;;;;;28.00;49.80;;;;;;666689;29;1370;-91
2022/06/09 02:38:29;;;;;;;;;;;28.00;49.20;;;;;;670208;29;1351;-93
2022/06/09 02:38:50;;;;;;;;;;;28.00;49.70;;;;;;669951;29;1368;-92
2022/06/09 02:39:11;;;;;;;;;;;28.00;49.70;;;;;;669803;29;1410;-92